This is the latest recevied weather packets stored in our database for station/object BARLOW-WX. If no packets are shown the sender has not sent any weather packets the latest 10 day(s).
| Time | Temp. | Humidity | Pressure | Rain* | Wind** | Luminosity | Snow |
|---|---|---|---|---|---|---|---|
| 1777659378 | 6.67° C | 56% | 988.1 hPa | 0 mm | - | - | - |
| 1777658511 | 6.67° C | 56% | 988.1 hPa | 0 mm | - | - | - |
| 1777657578 | 7.22° C | 56% | 989.1 hPa | 0 mm | - | - | - |
| 1777656694 | 6.67° C | 56% | 988.4 hPa | 0 mm | - | - | - |
| 1777655777 | 7.22° C | 56% | 988.5 hPa | 0 mm | - | - | - |
| 1777654905 | 7.22° C | 56% | 988.5 hPa | 0 mm | - | - | - |
| 1777653976 | 7.22° C | 58% | 987.1 hPa | 0 mm | - | - | - |
| 1777653097 | 7.22° C | 59% | 987.5 hPa | 0 mm | - | - | - |
| 1777652178 | 7.22° C | 59% | 987.4 hPa | 0 mm | - | - | - |
| 1777651316 | 6.67° C | 59% | 987.4 hPa | 0 mm | - | - | - |
| 1777650377 | 6.67° C | 66% | 987.5 hPa | 0 mm | - | - | - |
| 1777649493 | 6.67° C | 58% | 988.1 hPa | 0 mm | - | - | - |
| 1777647709 | 6.67° C | 58% | 988.1 hPa | 0 mm | - | - | - |
| 1777646778 | 6.67° C | 66% | 987.2 hPa | 0 mm | - | - | - |
| 1777645896 | 6.67° C | 59% | 987.8 hPa | 0 mm | - | - | - |
| 1777644977 | 6.11° C | 59% | 987.8 hPa | 0 mm | - | - | - |
| 1777644121 | 6.11° C | 59% | 987.8 hPa | 0 mm | - | - | - |
| 1777643177 | 5.56° C | 64% | 987.3 hPa | 0 mm | - | - | - |
| 1777642296 | 5.56° C | 64% | 987.3 hPa | 0 mm | - | - | - |
| 1777641377 | 5° C | 64% | 987.3 hPa | 0 mm | - | - | - |
| 1777640509 | 4.44° C | 64% | 987.3 hPa | 0 mm | - | - | - |
| 1777639578 | 3.89° C | 74% | 986.9 hPa | 0 mm | - | - | - |
| 1777638694 | 4.44° C | 71% | 986.8 hPa | 0 mm | - | - | - |
| 1777637777 | 3.89° C | 71% | 986.8 hPa | 0 mm | - | - | - |
| 1777636914 | 3.89° C | 71% | 986.8 hPa | 0 mm | - | - | - |
* Rain latest hour (hover to see other rain measurements)
** Current wind speed in m/s (hover to see current wind gust speed)